NC73 weather

Hodges Farm Airport
Sladesville, North Carolina, United States

Public forecast

Using degrees Fahrenheit for public forecast. Weather courtesy of forecast.io.

METAR (pilot weather report)

Closest report is Hyde County Airport, 25.3 nm (46.8 km) ENE. Retrieved 2019/02/16 13:00 UTC (14 minutes ago):

K7W6 161300Z AUTO 23004KT 5SM DZ SCT034 OVC040 12/11 A2980 RMK AO2 T01220107

TAF (pilot weather forecast)

Closest forecast is Coastal Carolina Regional Airport, 36.5 nm (67.5 km) SW. Retrieved 2019/02/16 12:36 UTC (38 minutes ago):

TAF KEWN 161134Z 1612/1712 21005KT 5SM RA OVC020 FM161500 05005KT 5SM RA OVC020 FM161700 04010G15KT 3SM RA OVC010 FM162000 03010G15KT P6SM VCSH OVC007 FM170100 02010G15KT P6SM BKN010 FM170300 01005KT P6SM BKN015 FM170500 01005KT P6SM BKN050